createdAt,value
2023-01-19T00:01:29.165Z,11.90
2023-01-19T00:03:01.386Z,11.90
2023-01-19T00:04:33.515Z,11.52
2023-01-19T00:06:07.172Z,13.20
2023-01-19T00:07:39.449Z,12.55
2023-01-19T00:09:11.576Z,12.60
2023-01-19T00:10:45.707Z,12.10
2023-01-19T00:12:17.758Z,13.90
2023-01-19T00:13:53.820Z,13.53
2023-01-19T00:15:25.828Z,12.73
2023-01-19T00:16:58.042Z,12.50
2023-01-19T00:18:33.940Z,13.75
2023-01-19T00:20:06.731Z,14.02
2023-01-19T00:21:38.841Z,13.32
2023-01-19T00:23:11.001Z,12.50
2023-01-19T00:24:43.089Z,14.00
2023-01-19T00:26:16.635Z,14.38
2023-01-19T00:27:51.162Z,13.40
2023-01-19T00:29:26.706Z,13.18
2023-01-19T00:30:58.754Z,13.38
2023-01-19T00:32:30.833Z,14.27
2023-01-19T00:34:03.913Z,13.93
2023-01-19T00:35:36.781Z,13.65
2023-01-19T00:37:12.107Z,13.27
2023-01-19T00:38:44.114Z,13.25
2023-01-19T00:40:16.576Z,15.33
2023-01-19T00:42:07.551Z,13.05
2023-01-19T00:43:39.600Z,14.73
2023-01-19T00:45:18.860Z,14.00
2023-01-19T00:46:51.141Z,12.95
2023-01-19T00:48:23.267Z,14.77
2023-01-19T00:49:55.469Z,14.57
2023-01-19T00:51:27.467Z,14.10
2023-01-19T00:53:01.637Z,12.93
2023-01-19T00:54:34.097Z,16.17
2023-01-19T00:56:06.622Z,15.02
2023-01-19T00:57:39.807Z,14.00
2023-01-19T00:59:11.994Z,13.98
2023-01-19T01:00:45.090Z,13.45
2023-01-19T01:02:17.472Z,13.88
2023-01-19T01:03:49.713Z,14.07
2023-01-19T01:05:28.385Z,14.95
2023-01-19T01:07:19.953Z,13.50
2023-01-19T01:08:54.622Z,14.40
2023-01-19T01:10:32.762Z,13.55
2023-01-19T01:12:06.038Z,13.55
2023-01-19T01:13:42.669Z,13.43
2023-01-19T01:15:16.205Z,13.82
2023-01-19T01:16:48.557Z,13.82
2023-01-19T01:18:21.201Z,14.63
2023-01-19T01:19:53.508Z,14.18
2023-01-19T01:21:25.731Z,13.20
2023-01-19T01:23:02.899Z,14.25
2023-01-19T01:24:38.737Z,13.60
2023-01-19T01:26:11.026Z,13.88
2023-01-19T01:27:45.927Z,14.23
2023-01-19T01:29:18.156Z,14.85
2023-01-19T01:30:54.740Z,14.27
2023-01-19T01:32:27.195Z,13.68
2023-01-19T01:33:59.511Z,14.55
2023-01-19T01:35:43.884Z,13.25
2023-01-19T01:37:15.977Z,13.07
2023-01-19T01:38:48.450Z,14.33
2023-01-19T01:40:20.758Z,14.38
2023-01-19T01:41:52.831Z,14.15
2023-01-19T01:43:49.760Z,14.35
2023-01-19T01:47:02.420Z,13.73
2023-01-19T01:48:34.965Z,10.80
2023-01-19T01:50:06.868Z,12.98
2023-01-19T01:51:51.805Z,13.18
2023-01-19T01:53:23.938Z,13.23
2023-01-19T01:54:57.020Z,14.88
2023-01-19T01:56:34.817Z,13.65
2023-01-19T01:58:08.250Z,14.15
2023-01-19T01:59:43.235Z,13.75
2023-01-19T02:01:33.925Z,13.70
2023-01-19T02:03:06.336Z,14.27
2023-01-19T02:04:41.215Z,13.93
2023-01-19T02:06:14.456Z,14.93
2023-01-19T02:08:26.444Z,14.63
2023-01-19T02:10:16.696Z,12.70
2023-01-19T02:12:08.014Z,12.38
2023-01-19T02:13:44.162Z,12.82
2023-01-19T02:15:19.092Z,12.63
2023-01-19T02:16:51.114Z,12.88
2023-01-19T02:18:25.655Z,12.87
2023-01-19T02:19:58.342Z,12.68
2023-01-19T02:21:35.548Z,13.02
2023-01-19T02:23:11.716Z,12.05
2023-01-19T02:24:44.050Z,13.90
2023-01-19T02:26:20.872Z,12.27
2023-01-19T02:27:53.269Z,12.90
2023-01-19T02:29:26.486Z,11.73
2023-01-19T02:30:58.807Z,12.05
2023-01-19T02:32:30.913Z,12.65
2023-01-19T02:34:04.168Z,14.00
2023-01-19T02:35:38.316Z,12.70
2023-01-19T02:37:22.393Z,12.55
2023-01-19T02:39:08.035Z,13.15
2023-01-19T02:40:43.178Z,12.00
2023-01-19T02:42:47.755Z,11.48
2023-01-19T02:44:21.434Z,12.90
2023-01-19T02:46:12.688Z,11.77
2023-01-19T02:47:55.319Z,13.25
2023-01-19T02:49:59.999Z,12.35
2023-01-19T02:51:35.821Z,11.48
2023-01-19T02:53:13.354Z,12.32
2023-01-19T02:54:48.332Z,11.85
2023-01-19T02:56:46.517Z,11.25
2023-01-19T02:58:32.307Z,12.02
2023-01-19T03:00:22.595Z,11.13
2023-01-19T03:02:59.220Z,12.05
2023-01-19T03:05:03.955Z,11.85
2023-01-19T03:06:52.868Z,10.65
2023-01-19T03:08:38.564Z,11.75
2023-01-19T03:11:01.554Z,12.85
2023-01-19T03:12:44.574Z,11.40
2023-01-19T03:14:22.257Z,11.75
2023-01-19T03:16:00.258Z,12.38
2023-01-19T03:17:33.043Z,13.73
2023-01-19T03:19:27.444Z,12.30
2023-01-19T03:21:01.988Z,11.50
2023-01-19T03:22:34.801Z,13.55
2023-01-19T03:24:11.992Z,13.15
2023-01-19T03:25:48.255Z,12.55
2023-01-19T03:27:49.817Z,13.85
2023-01-19T03:32:18.585Z,13.90
2023-01-19T03:33:53.715Z,12.80
2023-01-19T03:35:28.271Z,15.68
2023-01-19T03:37:17.806Z,15.57
2023-01-19T03:38:50.621Z,14.32
2023-01-19T03:40:23.256Z,14.45
2023-01-19T03:41:58.955Z,16.13
2023-01-19T03:43:35.267Z,15.85
2023-01-19T03:45:20.864Z,16.17
2023-01-19T03:46:52.982Z,14.85
2023-01-19T03:48:25.091Z,15.63
2023-01-19T03:49:57.402Z,15.95
2023-01-19T03:51:29.768Z,16.15
2023-01-19T03:53:13.661Z,14.90
2023-01-19T03:54:45.637Z,15.65
2023-01-19T03:56:26.871Z,15.87
2023-01-19T03:58:28.573Z,16.33
2023-01-19T19:05:31.640Z,19.17
2023-01-19T19:06:09.076Z,21.42
2023-01-19T19:07:06.818Z,20.90
2023-01-19T19:08:41.484Z,15.35
2023-01-19T19:10:13.738Z,19.95
2023-01-19T19:11:45.891Z,19.90
2023-01-19T19:13:18.045Z,20.17
2023-01-19T19:14:50.075Z,21.38
2023-01-19T19:16:26.540Z,20.80
2023-01-19T19:17:59.735Z,19.08
2023-01-19T19:19:31.763Z,19.52
2023-01-19T19:21:11.607Z,19.57
2023-01-19T19:22:43.603Z,19.98
2023-01-19T19:24:15.632Z,20.67
2023-01-19T19:25:47.601Z,20.17
2023-01-19T19:27:24.066Z,20.90
2023-01-19T19:28:56.247Z,21.27
2023-01-19T19:30:28.266Z,20.88
2023-01-19T19:32:00.291Z,21.23
2023-01-19T19:35:08.397Z,20.42
2023-01-19T19:36:40.544Z,22.20
2023-01-19T19:38:12.555Z,20.50
2023-01-19T19:39:44.563Z,22.33
2023-01-19T19:41:29.941Z,21.98
2023-01-19T19:43:02.008Z,22.45
2023-01-19T19:44:36.149Z,23.30
2023-01-19T19:46:11.845Z,22.35
2023-01-19T19:47:46.508Z,23.08
2023-01-19T19:49:21.751Z,23.70
2023-01-19T19:50:54.266Z,23.00
2023-01-19T19:52:27.908Z,21.77
2023-01-19T19:54:00.888Z,21.67
2023-01-19T19:57:04.637Z,20.13
2023-01-19T19:58:38.879Z,21.47
2023-01-19T20:00:11.580Z,23.77
2023-01-19T20:03:17.244Z,21.17
2023-01-19T20:04:49.134Z,23.90
2023-01-19T20:06:23.695Z,23.60
2023-01-19T20:07:55.657Z,23.60
2023-01-19T20:09:27.683Z,23.47
2023-01-19T20:11:09.781Z,24.00
2023-01-19T20:12:41.764Z,23.27
2023-01-19T20:14:16.371Z,24.95
2023-01-19T20:15:48.480Z,23.98
2023-01-19T20:17:21.009Z,25.52
2023-01-19T20:18:58.361Z,23.80
2023-01-19T20:20:30.649Z,23.90
2023-01-19T20:22:02.556Z,23.77
2023-01-19T20:23:37.192Z,23.17
2023-01-19T20:25:09.631Z,23.95
2023-01-19T20:26:44.913Z,24.48
2023-01-19T20:28:16.830Z,24.48
2023-01-19T20:29:58.163Z,23.02
2023-01-19T20:31:32.071Z,24.52
2023-01-19T20:33:04.221Z,26.35
2023-01-19T20:34:36.721Z,28.43
2023-01-19T20:36:19.092Z,27.77
2023-01-19T20:37:56.548Z,26.95
2023-01-19T20:39:35.858Z,27.63
2023-01-19T20:41:09.637Z,26.48
2023-01-19T20:42:43.508Z,26.48
2023-01-19T20:44:19.421Z,26.58
2023-01-19T20:45:52.845Z,26.20
2023-01-19T20:47:25.547Z,24.85
2023-01-19T20:48:57.474Z,23.35
2023-01-19T20:50:29.521Z,26.00
2023-01-19T20:52:01.890Z,24.63
2023-01-19T20:53:35.278Z,26.13
2023-01-19T20:55:09.118Z,24.70
2023-01-19T20:56:44.231Z,28.73
2023-01-19T20:58:16.183Z,25.48
2023-01-19T20:59:48.437Z,25.85
2023-01-19T21:01:23.051Z,26.40
2023-01-19T21:02:56.645Z,24.77
2023-01-19T21:04:28.624Z,28.30
2023-01-19T21:06:00.591Z,25.23
2023-01-19T21:07:32.523Z,25.23
2023-01-19T21:09:25.494Z,25.80
2023-01-19T21:10:57.877Z,27.00
2023-01-19T21:12:30.104Z,25.50
2023-01-19T21:14:02.368Z,26.15
2023-01-19T21:15:34.642Z,27.65
2023-01-19T21:17:06.622Z,26.92
2023-01-19T21:18:38.538Z,25.73
2023-01-19T21:20:11.152Z,27.17
2023-01-19T21:21:43.111Z,26.77
2023-01-19T21:23:15.306Z,26.67
2023-01-19T21:24:47.390Z,20.33
2023-01-19T21:26:19.405Z,27.50
2023-01-19T21:27:51.547Z,27.73
2023-01-19T21:29:29.905Z,25.98
2023-01-19T21:31:13.241Z,27.48
2023-01-19T21:34:17.356Z,27.05
2023-01-19T21:35:53.931Z,28.53
2023-01-19T21:37:25.864Z,29.40
2023-01-19T21:39:00.986Z,21.55
2023-01-19T21:40:33.147Z,27.35
2023-01-19T21:42:08.051Z,27.13
2023-01-19T21:43:41.928Z,20.83
2023-01-19T21:45:14.105Z,27.77
2023-01-19T21:46:47.204Z,26.15
2023-01-19T21:48:19.998Z,26.80
2023-01-19T21:49:51.957Z,27.92
2023-01-19T21:51:24.025Z,27.98
2023-01-19T21:52:56.018Z,28.05
2023-01-19T21:54:27.958Z,28.70
2023-01-19T21:56:00.618Z,28.55
2023-01-19T21:57:32.451Z,24.75
2023-01-19T21:59:06.723Z,28.27
2023-01-19T22:00:38.696Z,27.17
2023-01-19T22:02:12.954Z,27.67
2023-01-19T22:03:45.285Z,28.17
2023-01-19T22:05:17.731Z,26.52
2023-01-19T22:06:49.825Z,27.23
2023-01-19T22:08:24.695Z,29.35
2023-01-19T22:09:56.601Z,27.67
2023-01-19T22:11:29.191Z,29.52
2023-01-19T22:13:01.428Z,27.65
2023-01-19T22:14:33.404Z,27.85
2023-01-19T22:16:10.681Z,27.77
2023-01-19T22:17:42.566Z,29.73
2023-01-19T22:19:14.602Z,26.83
2023-01-19T22:20:46.624Z,28.65
2023-01-19T22:22:18.561Z,29.85
2023-01-19T22:23:52.212Z,30.27
2023-01-19T22:25:27.917Z,28.80
2023-01-19T22:26:59.902Z,28.95
2023-01-19T22:28:32.055Z,22.98
2023-01-19T22:30:04.167Z,28.77
2023-01-19T22:31:36.170Z,27.67
2023-01-19T22:33:08.182Z,30.23
2023-01-19T22:34:40.085Z,28.47
2023-01-19T22:36:16.193Z,28.17
2023-01-19T22:37:48.181Z,29.83
2023-01-19T22:39:20.065Z,30.73
2023-01-19T22:40:52.010Z,28.05
2023-01-19T22:42:23.923Z,29.90
2023-01-19T22:43:58.341Z,29.00
2023-01-19T22:45:30.286Z,30.50
2023-01-19T22:47:02.257Z,29.92
2023-01-19T22:48:34.465Z,29.77
2023-01-19T22:50:09.851Z,30.45
2023-01-19T22:51:42.206Z,30.27
2023-01-19T22:53:14.205Z,28.90
2023-01-19T22:54:46.170Z,29.15
2023-01-19T22:56:25.645Z,30.05
2023-01-19T22:57:57.956Z,26.67
2023-01-19T22:59:30.017Z,30.83
2023-01-19T23:01:09.413Z,31.58
2023-01-19T23:02:41.362Z,29.13
2023-01-19T23:04:15.066Z,30.17
2023-01-19T23:05:47.013Z,28.50
2023-01-19T23:07:19.079Z,30.92
2023-01-19T23:08:51.528Z,31.00
2023-01-19T23:10:23.534Z,29.65
2023-01-19T23:11:55.436Z,28.80
2023-01-19T23:13:27.461Z,28.23
2023-01-19T23:14:59.357Z,28.50
2023-01-19T23:16:31.277Z,29.40
2023-01-19T23:18:03.220Z,29.40
2023-01-19T23:19:35.270Z,30.38
2023-01-19T23:21:10.247Z,31.03
2023-01-19T23:22:42.150Z,28.55
2023-01-19T23:24:14.021Z,30.27
2023-01-19T23:25:46.073Z,30.25
2023-01-19T23:27:17.963Z,30.20
2023-01-19T23:28:54.764Z,24.13
2023-01-19T23:30:27.006Z,28.02
2023-01-19T23:31:58.954Z,28.20
2023-01-19T23:33:30.810Z,28.42
2023-01-19T23:35:02.745Z,30.60
2023-01-19T23:36:36.470Z,27.58
2023-01-19T23:38:08.305Z,30.42
2023-01-19T23:39:40.198Z,29.90
2023-01-19T23:41:12.092Z,30.70
2023-01-19T23:42:43.994Z,28.08
2023-01-19T23:44:17.395Z,27.83
2023-01-19T23:45:49.330Z,28.65
2023-01-19T23:47:21.202Z,29.45
2023-01-19T23:48:53.392Z,28.67
2023-01-19T23:50:25.319Z,30.27
2023-01-19T23:51:57.210Z,24.13
2023-01-19T23:53:29.061Z,27.83
2023-01-19T23:55:00.974Z,27.98
2023-01-19T23:56:34.670Z,29.02
2023-01-19T23:58:06.539Z,29.23
2023-01-19T23:59:38.452Z,27.55
